Aviation Digital Data Service (ADDS)

Output produced by METARs form (0833 UTC 24 September 2017)
found at http://aviationweather.gov/adds/metars/
 
KPGV 240757Z 2408/2506 05003KT P6SM SCT250 
     TEMPO 2408/2412 1SM BR SCT007 
     FM241300 05008KT P6SM BKN250 
     FM250300 04005KT P6SM FEW250 AMD LTD TO CLD VIS AND WIND